createdAt,value
2022-12-09T00:00:33.039Z,49.73
2022-12-09T00:03:21.717Z,48.43
2022-12-09T00:05:50.962Z,52.30
2022-12-09T00:08:18.397Z,52.50
2022-12-09T00:10:45.577Z,50.03
2022-12-09T00:13:13.123Z,49.53
2022-12-09T00:15:43.485Z,49.77
2022-12-09T00:18:11.183Z,50.17
2022-12-09T00:20:38.187Z,44.90
2022-12-09T00:23:06.111Z,50.17
2022-12-09T00:25:33.289Z,53.73
2022-12-09T00:28:00.646Z,50.40
2022-12-09T00:30:27.780Z,49.33
2022-12-09T00:32:55.267Z,51.30
2022-12-09T00:35:23.430Z,48.70
2022-12-09T00:37:50.933Z,47.27
2022-12-09T00:40:18.216Z,44.47
2022-12-09T00:42:45.437Z,48.87
2022-12-09T00:45:12.436Z,53.13
2022-12-09T00:47:40.996Z,47.03
2022-12-09T00:50:08.466Z,44.63
2022-12-09T00:52:36.380Z,53.27
2022-12-09T00:55:05.623Z,47.43
2022-12-09T00:57:33.089Z,50.60
2022-12-09T01:00:00.257Z,47.47
2022-12-09T01:02:27.635Z,52.27
2022-12-09T01:04:56.419Z,47.00
2022-12-09T01:07:23.776Z,49.47
2022-12-09T01:09:50.832Z,48.57
2022-12-09T01:12:17.994Z,50.53
2022-12-09T01:14:45.047Z,51.50
2022-12-09T01:17:12.460Z,49.17
2022-12-09T01:19:40.430Z,50.20
2022-12-09T01:22:07.813Z,52.30
2022-12-09T01:24:34.841Z,50.87
2022-12-09T01:27:02.420Z,51.40
2022-12-09T01:29:29.436Z,52.27
2022-12-09T01:31:56.822Z,51.73
2022-12-09T01:34:25.733Z,51.53
2022-12-09T01:36:53.316Z,50.03
2022-12-09T01:39:20.569Z,49.30
2022-12-09T01:41:49.726Z,55.03
2022-12-09T01:44:25.598Z,53.87
2022-12-09T01:46:56.070Z,52.27
2022-12-09T01:49:34.310Z,58.57
2022-12-09T01:52:16.439Z,54.87
2022-12-09T01:54:46.065Z,48.37
2022-12-09T01:57:15.812Z,48.10
2022-12-09T01:59:44.770Z,52.37
2022-12-09T02:02:16.911Z,56.03
2022-12-09T02:04:48.693Z,59.27
2022-12-09T02:07:18.827Z,56.13
2022-12-09T02:09:46.161Z,53.73
2022-12-09T02:12:13.566Z,56.50
2022-12-09T02:15:15.184Z,66.07
2022-12-09T02:17:54.490Z,75.77
2022-12-09T02:20:36.723Z,62.57
2022-12-09T02:23:24.403Z,59.80
2022-12-09T02:26:05.667Z,63.47
2022-12-09T02:29:06.926Z,62.43
2022-12-09T02:31:55.135Z,61.77
2022-12-09T02:34:28.821Z,57.77
2022-12-09T02:37:07.035Z,66.77
2022-12-09T02:39:46.589Z,71.40
2022-12-09T02:42:17.060Z,70.57
2022-12-09T02:44:49.494Z,75.20
2022-12-09T02:47:25.230Z,67.73
2022-12-09T02:49:58.065Z,73.73
2022-12-09T02:52:28.265Z,68.77
2022-12-09T02:54:58.520Z,64.90
2022-12-09T02:57:29.080Z,61.77
2022-12-09T02:59:56.848Z,72.90
2022-12-09T03:02:34.668Z,66.17
2022-12-09T03:05:34.193Z,63.83
2022-12-09T03:08:36.855Z,77.00
2022-12-09T03:11:14.343Z,78.10
2022-12-09T03:13:41.328Z,79.33
2022-12-09T03:16:19.508Z,75.50
2022-12-09T03:18:52.813Z,76.17
2022-12-09T03:21:23.551Z,68.93
2022-12-09T03:23:52.674Z,72.83
2022-12-09T03:26:20.682Z,81.47
2022-12-09T03:28:50.699Z,90.17
2022-12-09T03:31:21.952Z,109.70
2022-12-09T03:33:52.826Z,110.33
2022-12-09T03:36:22.580Z,113.20
2022-12-09T03:38:51.964Z,117.07
2022-12-09T03:41:28.066Z,113.33
2022-12-09T03:44:05.233Z,105.87
2022-12-09T03:46:33.008Z,101.53
2022-12-09T03:49:00.471Z,121.40
2022-12-09T03:51:44.466Z,96.43
2022-12-09T03:54:21.593Z,98.03
2022-12-09T03:56:53.231Z,93.20
2022-12-09T03:59:22.003Z,86.37
2022-12-09T04:01:49.794Z,79.10
2022-12-09T04:04:17.476Z,89.77
2022-12-09T04:06:45.400Z,80.63
2022-12-09T04:09:12.622Z,85.43
2022-12-09T04:11:39.860Z,89.53
2022-12-09T04:14:11.894Z,81.33
2022-12-09T04:16:42.934Z,87.23
2022-12-09T04:19:10.312Z,77.60
2022-12-09T04:21:37.967Z,83.27
2022-12-09T04:24:05.186Z,74.90
2022-12-09T04:26:32.416Z,79.40
2022-12-09T04:28:59.727Z,82.37
2022-12-09T04:31:27.487Z,76.67
2022-12-09T04:33:54.427Z,80.17
2022-12-09T04:36:21.794Z,88.43
2022-12-09T04:38:51.084Z,76.90
2022-12-09T04:41:18.484Z,76.97
2022-12-09T04:43:45.675Z,83.53
2022-12-09T04:46:16.383Z,88.87
2022-12-09T04:48:44.436Z,89.93
2022-12-09T04:51:13.744Z,101.63
2022-12-09T04:53:41.419Z,88.87
2022-12-09T04:56:19.107Z,89.27
2022-12-09T04:58:46.939Z,91.50
2022-12-09T05:01:18.299Z,85.77
2022-12-09T05:03:50.943Z,92.10
2022-12-09T05:06:20.806Z,95.47
2022-12-09T05:08:48.577Z,82.63
2022-12-09T05:11:18.023Z,82.23
2022-12-09T05:13:45.974Z,91.47
2022-12-09T05:16:17.153Z,87.47
2022-12-09T05:18:45.733Z,93.53
2022-12-09T05:21:16.528Z,92.93
2022-12-09T05:23:43.900Z,100.40
2022-12-09T05:26:14.582Z,108.47
2022-12-09T05:28:42.272Z,105.47
2022-12-09T05:31:12.368Z,92.90
2022-12-09T05:33:39.730Z,96.60
2022-12-09T05:36:11.813Z,93.00
2022-12-09T05:38:39.243Z,90.10
2022-12-09T05:41:07.289Z,93.30
2022-12-09T05:43:35.252Z,85.40
2022-12-09T05:46:03.626Z,97.07
2022-12-09T05:48:31.052Z,85.97
2022-12-09T05:51:23.193Z,94.00
2022-12-09T05:53:50.475Z,97.50
2022-12-09T05:56:19.101Z,92.87
2022-12-09T05:58:47.092Z,103.20
2022-12-09T06:01:15.518Z,105.23
2022-12-09T06:03:42.953Z,92.77
2022-12-09T06:06:16.830Z,101.27
2022-12-09T06:08:45.186Z,91.67
2022-12-09T06:11:23.136Z,93.30
2022-12-09T06:13:50.851Z,91.87
2022-12-09T06:16:20.704Z,83.87
2022-12-09T06:18:48.887Z,124.93
2022-12-09T06:21:18.409Z,112.67
2022-12-09T06:23:45.648Z,109.93
2022-12-09T06:26:19.612Z,114.03
2022-12-09T06:28:46.889Z,112.20
2022-12-09T06:31:14.908Z,99.70
2022-12-09T06:33:58.843Z,89.27
2022-12-09T06:36:29.148Z,106.83
2022-12-09T06:38:58.797Z,113.23
2022-12-09T06:41:28.254Z,145.47
2022-12-09T06:44:00.191Z,126.90
2022-12-09T06:46:28.656Z,151.40
2022-12-09T06:48:56.834Z,130.93
2022-12-09T06:51:26.090Z,144.00
2022-12-09T06:53:54.374Z,184.70
2022-12-09T06:56:23.140Z,177.57
2022-12-09T06:58:50.626Z,146.27
2022-12-09T07:01:20.056Z,129.03
2022-12-09T07:03:51.484Z,163.60
2022-12-09T07:06:21.909Z,122.97
2022-12-09T07:08:49.311Z,141.77
2022-12-09T07:11:16.944Z,147.50
2022-12-09T07:13:44.842Z,140.03
2022-12-09T07:16:12.102Z,135.27
2022-12-09T07:18:39.773Z,159.33
2022-12-09T07:21:13.299Z,122.83
2022-12-09T07:23:43.516Z,131.27
2022-12-09T07:26:11.937Z,116.57
2022-12-09T07:28:42.627Z,113.23
2022-12-09T07:31:21.792Z,114.77
2022-12-09T07:33:50.250Z,127.13
2022-12-09T07:36:21.198Z,112.17
2022-12-09T07:38:53.961Z,112.50
2022-12-09T07:41:21.674Z,111.63
2022-12-09T07:43:49.010Z,131.30
2022-12-09T07:46:18.459Z,150.33
2022-12-09T07:48:47.150Z,130.90
2022-12-09T07:51:15.752Z,224.17
2022-12-09T07:53:43.210Z,238.77
2022-12-09T07:56:14.797Z,248.40
2022-12-09T07:58:43.268Z,155.20
2022-12-09T08:01:14.087Z,139.10
2022-12-09T08:03:42.611Z,146.70
2022-12-09T08:06:18.744Z,149.13
2022-12-09T08:08:47.179Z,133.50
2022-12-09T08:11:20.626Z,143.13
2022-12-09T08:13:49.027Z,121.57
2022-12-09T08:16:20.392Z,100.40
2022-12-09T08:18:48.872Z,98.20
2022-12-09T08:21:23.368Z,114.40
2022-12-09T08:23:51.529Z,102.87
2022-12-09T08:26:21.413Z,98.53
2022-12-09T08:28:48.954Z,92.30
2022-12-09T08:31:22.270Z,101.80
2022-12-09T08:33:50.711Z,87.53
2022-12-09T08:36:21.067Z,89.70
2022-12-09T08:38:48.787Z,91.83
2022-12-09T08:41:17.590Z,79.57
2022-12-09T08:43:45.807Z,88.63
2022-12-09T08:46:14.197Z,75.90
2022-12-09T08:48:42.940Z,84.07
2022-12-09T08:51:12.291Z,81.40
2022-12-09T08:53:39.923Z,76.70
2022-12-09T08:56:09.486Z,76.47
2022-12-09T08:58:36.793Z,86.47
2022-12-09T09:01:04.862Z,83.57
2022-12-09T09:03:32.419Z,65.97
2022-12-09T09:06:09.711Z,77.77
2022-12-09T09:08:38.977Z,85.07
2022-12-09T09:11:12.412Z,77.07
2022-12-09T09:13:41.487Z,72.77
2022-12-09T09:16:12.460Z,83.87
2022-12-09T09:18:40.196Z,101.53
2022-12-09T09:21:09.792Z,79.53
2022-12-09T09:23:37.491Z,76.00
2022-12-09T09:26:05.590Z,66.83
2022-12-09T09:28:34.056Z,70.07
2022-12-09T09:31:03.555Z,70.30
2022-12-09T09:33:31.604Z,71.83
2022-12-09T09:36:06.878Z,71.87
2022-12-09T09:38:37.100Z,67.70
2022-12-09T09:41:34.013Z,67.93
2022-12-09T09:44:02.166Z,73.80
2022-12-09T09:46:42.412Z,73.23
2022-12-09T09:49:19.745Z,75.57
2022-12-09T09:51:47.685Z,70.70
2022-12-09T09:54:16.055Z,70.77
2022-12-09T09:56:55.144Z,75.33
2022-12-09T09:59:31.017Z,62.33
2022-12-09T10:02:04.935Z,64.60
2022-12-09T10:04:47.125Z,64.93
2022-12-09T10:07:33.742Z,62.30
2022-12-09T10:10:19.713Z,57.30
2022-12-09T10:13:06.795Z,69.97
2022-12-09T10:15:45.927Z,64.10
2022-12-09T10:18:26.001Z,64.70
2022-12-09T10:20:53.814Z,67.50
2022-12-09T10:23:22.571Z,65.80
2022-12-09T10:25:57.501Z,63.80
2022-12-09T10:28:30.704Z,61.30
2022-12-09T10:30:58.191Z,59.87
2022-12-09T10:33:39.161Z,60.77
2022-12-09T10:36:19.412Z,65.20
2022-12-09T10:38:48.773Z,60.90
2022-12-09T10:41:57.130Z,54.87
2022-12-09T10:44:26.939Z,49.87
2022-12-09T10:47:04.268Z,50.57
2022-12-09T10:49:33.387Z,55.30
2022-12-09T10:52:02.407Z,59.73
2022-12-09T10:54:39.405Z,73.17
2022-12-09T10:57:26.800Z,71.37
2022-12-09T11:00:18.952Z,67.33
2022-12-09T11:02:53.048Z,63.43
2022-12-09T11:05:29.838Z,59.30
2022-12-09T11:07:58.885Z,59.07
2022-12-09T11:10:29.645Z,61.53
2022-12-09T11:13:08.020Z,64.67
2022-12-09T11:15:41.302Z,62.53
2022-12-09T11:18:19.257Z,57.20
2022-12-09T11:21:02.484Z,55.93
2022-12-09T11:23:30.826Z,51.80
2022-12-09T11:26:01.158Z,51.47
2022-12-09T11:28:32.869Z,55.53
2022-12-09T11:31:29.550Z,53.37
2022-12-09T11:34:01.450Z,55.43
2022-12-09T11:36:35.338Z,50.27
2022-12-09T11:39:31.921Z,54.93
2022-12-09T11:42:19.634Z,60.37
2022-12-09T11:45:00.177Z,51.47
2022-12-09T11:48:21.175Z,55.83
2022-12-09T11:50:32.278Z,53.63
2022-12-09T11:53:07.868Z,46.63
2022-12-09T11:55:38.214Z,50.57
2022-12-09T11:58:10.764Z,50.07
2022-12-09T12:00:46.163Z,45.77
2022-12-09T12:03:21.370Z,45.60
2022-12-09T12:05:51.250Z,41.97
2022-12-09T12:08:32.213Z,49.10
2022-12-09T12:11:15.588Z,47.67
2022-12-09T12:13:45.921Z,47.47
2022-12-09T12:16:27.478Z,48.03
2022-12-09T12:19:05.235Z,50.57
2022-12-09T12:21:56.073Z,53.60
2022-12-09T12:25:00.534Z,45.07
2022-12-09T12:27:39.902Z,61.00
2022-12-09T12:30:30.628Z,66.57
2022-12-09T12:36:21.074Z,82.23
2022-12-09T12:39:33.053Z,80.57
2022-12-09T12:42:06.230Z,57.07
2022-12-09T12:45:17.075Z,89.67
2022-12-09T12:48:08.285Z,65.60
2022-12-09T12:51:13.962Z,55.20
2022-12-09T12:53:47.071Z,52.27
2022-12-09T12:56:25.419Z,53.63
2022-12-09T12:59:00.221Z,53.03
2022-12-09T13:01:33.059Z,67.77
2022-12-09T13:04:30.031Z,65.60
2022-12-09T13:07:06.175Z,52.47
2022-12-09T13:09:49.718Z,51.50
2022-12-09T13:12:45.333Z,48.33
2022-12-09T13:15:16.331Z,49.77
2022-12-09T13:17:45.809Z,58.20
2022-12-09T13:20:37.648Z,52.63
2022-12-09T13:23:20.669Z,51.17
2022-12-09T13:25:50.661Z,55.43
2022-12-09T13:28:27.101Z,56.20
2022-12-09T13:30:59.899Z,50.07
2022-12-09T13:33:38.826Z,48.90
2022-12-09T13:36:29.361Z,56.23
2022-12-09T13:39:00.096Z,52.83
2022-12-09T13:41:27.372Z,60.47
2022-12-09T13:43:56.705Z,64.57
2022-12-09T13:46:26.228Z,62.57
2022-12-09T13:48:54.678Z,70.90
2022-12-09T13:51:23.753Z,75.37
2022-12-09T13:53:50.653Z,77.90
2022-12-09T13:56:32.280Z,73.80
2022-12-09T13:59:33.170Z,79.87
2022-12-09T14:02:22.542Z,76.00
2022-12-09T14:05:01.626Z,77.53
2022-12-09T14:07:33.120Z,80.17
2022-12-09T14:10:01.147Z,78.80
2022-12-09T14:12:28.565Z,85.40
2022-12-09T14:15:25.968Z,82.43
2022-12-09T14:18:03.595Z,80.20
2022-12-09T14:20:34.985Z,80.73
2022-12-09T14:23:02.162Z,71.87
2022-12-09T14:25:29.307Z,73.10
2022-12-09T14:28:21.077Z,72.37
2022-12-09T14:30:51.124Z,72.63
2022-12-09T14:33:24.135Z,72.93
2022-12-09T14:35:57.204Z,101.10
2022-12-09T14:38:35.314Z,153.07
2022-12-09T14:41:33.380Z,146.23
2022-12-09T14:44:26.499Z,159.13
2022-12-09T14:47:18.695Z,152.13
2022-12-09T14:49:49.591Z,133.67
2022-12-09T14:52:30.813Z,114.80
2022-12-09T14:55:02.061Z,105.90
2022-12-09T14:57:38.126Z,94.17
2022-12-09T15:00:07.316Z,97.33
2022-12-09T15:02:34.879Z,100.80
2022-12-09T15:05:03.195Z,94.57
2022-12-09T15:07:32.802Z,91.40
2022-12-09T15:10:18.017Z,82.63
2022-12-09T15:12:49.849Z,77.47
2022-12-09T15:15:25.276Z,76.20
2022-12-09T15:17:57.399Z,81.87
2022-12-09T15:20:29.111Z,81.63
2022-12-09T15:23:22.822Z,95.77
2022-12-09T15:25:59.434Z,97.10
2022-12-09T15:28:29.946Z,102.90
2022-12-09T15:31:02.829Z,88.80
2022-12-09T15:33:38.830Z,94.67
2022-12-09T15:36:10.403Z,87.73
2022-12-09T15:38:43.853Z,135.27
2022-12-09T15:41:29.168Z,125.47
2022-12-09T15:44:01.515Z,109.43
2022-12-09T15:46:31.055Z,111.27
2022-12-09T15:49:01.316Z,124.67
2022-12-09T15:51:29.067Z,127.77
2022-12-09T15:54:00.035Z,122.80
2022-12-09T15:56:40.601Z,116.63
2022-12-09T15:59:14.021Z,119.70
2022-12-09T16:01:49.171Z,118.60
2022-12-09T16:04:22.602Z,103.37
2022-12-09T16:06:50.639Z,123.60
2022-12-09T16:09:20.430Z,112.50
2022-12-09T16:11:53.244Z,124.70
2022-12-09T16:14:22.338Z,122.77
2022-12-09T16:17:01.540Z,124.90
2022-12-09T16:19:31.536Z,133.93
2022-12-09T16:22:18.657Z,130.27
2022-12-09T16:25:13.795Z,137.37
2022-12-09T16:27:37.456Z,134.67
2022-12-09T16:30:14.205Z,121.07
2022-12-09T16:32:46.504Z,120.23
2022-12-09T16:35:40.231Z,132.23
2022-12-09T16:38:16.515Z,145.37
2022-12-09T16:40:44.023Z,222.43
2022-12-09T16:43:17.176Z,193.00
2022-12-09T16:45:53.560Z,191.93
2022-12-09T16:48:22.434Z,241.90
2022-12-09T16:50:53.312Z,165.97
2022-12-09T16:53:34.046Z,123.70
2022-12-09T16:56:02.939Z,136.33
2022-12-09T16:58:35.379Z,201.53
2022-12-09T17:01:04.611Z,191.00
2022-12-09T17:03:43.086Z,183.23
2022-12-09T17:06:14.559Z,135.57
2022-12-09T17:08:41.902Z,126.30
2022-12-09T17:11:09.609Z,123.90
2022-12-09T17:13:37.631Z,120.50
2022-12-09T17:16:06.121Z,116.20
2022-12-09T17:18:34.202Z,127.97
2022-12-09T17:21:07.007Z,126.17
2022-12-09T17:23:39.630Z,117.37
2022-12-09T17:26:09.824Z,120.50
2022-12-09T17:28:38.065Z,125.87
2022-12-09T17:31:11.267Z,144.60
2022-12-09T17:33:38.433Z,145.07
2022-12-09T17:36:06.412Z,128.30
2022-12-09T17:38:34.342Z,129.90
2022-12-09T17:41:06.994Z,118.03
2022-12-09T17:43:34.446Z,130.20
2022-12-09T17:46:03.239Z,124.57
2022-12-09T17:48:31.488Z,143.03
2022-12-09T17:50:58.877Z,133.30
2022-12-09T17:53:25.840Z,136.93
2022-12-09T17:55:53.060Z,138.77
2022-12-09T17:58:20.005Z,133.23
2022-12-09T18:00:47.985Z,132.27
2022-12-09T18:03:27.505Z,124.50
2022-12-09T18:06:00.543Z,122.97
2022-12-09T18:08:29.642Z,121.77
2022-12-09T18:10:57.055Z,121.30
2022-12-09T18:13:24.015Z,124.13
2022-12-09T18:15:54.439Z,134.87
2022-12-09T18:18:21.510Z,122.23
2022-12-09T18:20:48.870Z,143.47
2022-12-09T18:23:16.017Z,132.03
2022-12-09T18:25:43.245Z,142.70
2022-12-09T18:28:10.185Z,137.33
2022-12-09T18:30:39.674Z,136.53
2022-12-09T18:33:06.732Z,128.13
2022-12-09T18:35:34.017Z,118.67
2022-12-09T18:38:09.543Z,149.17
2022-12-09T18:41:00.666Z,147.93
2022-12-09T18:43:33.621Z,136.67
2022-12-09T18:46:03.110Z,135.43
2022-12-09T18:48:30.679Z,142.20
2022-12-09T18:50:58.593Z,132.20
2022-12-09T18:53:25.908Z,121.53
2022-12-09T18:55:53.658Z,129.83
2022-12-09T18:58:31.553Z,117.97
2022-12-09T19:01:28.979Z,115.83
2022-12-09T19:04:00.284Z,99.03
2022-12-09T19:06:28.702Z,101.90
2022-12-09T19:09:02.136Z,102.97
2022-12-09T19:11:34.664Z,110.17
2022-12-09T19:14:02.579Z,108.00
2022-12-09T19:16:30.218Z,97.37
2022-12-09T19:18:57.923Z,89.27
2022-12-09T19:21:27.230Z,92.27
2022-12-09T19:23:54.801Z,93.77
2022-12-09T19:26:29.520Z,77.93
2022-12-09T19:28:59.725Z,91.43
2022-12-09T19:31:28.291Z,83.07
2022-12-09T19:33:57.296Z,81.33
2022-12-09T19:36:26.365Z,87.90
2022-12-09T19:38:53.431Z,87.77
2022-12-09T19:41:21.209Z,85.30
2022-12-09T19:43:48.156Z,101.43
2022-12-09T19:46:15.862Z,110.67
2022-12-09T19:48:46.712Z,125.10
2022-12-09T19:51:16.267Z,117.40
2022-12-09T19:53:44.370Z,106.03
2022-12-09T19:56:19.412Z,115.17
2022-12-09T19:58:47.349Z,97.40
2022-12-09T20:01:17.374Z,94.33
2022-12-09T20:03:46.341Z,89.60
2022-12-09T20:06:16.042Z,94.53
2022-12-09T20:08:43.726Z,100.43
2022-12-09T20:11:16.470Z,100.00
2022-12-09T20:13:43.882Z,96.43
2022-12-09T20:16:14.422Z,98.73
2022-12-09T20:18:42.186Z,97.67
2022-12-09T20:21:11.631Z,97.83
2022-12-09T20:23:40.404Z,92.30
2022-12-09T20:26:19.336Z,86.17
2022-12-09T20:28:48.501Z,93.80
2022-12-09T20:31:20.742Z,81.77
2022-12-09T20:33:52.047Z,94.60
2022-12-09T20:36:21.169Z,79.83
2022-12-09T20:38:53.583Z,98.10
2022-12-09T20:41:21.372Z,93.27
2022-12-09T20:43:50.007Z,94.03
2022-12-09T20:46:26.225Z,101.60
2022-12-09T20:48:54.152Z,88.67
2022-12-09T20:51:25.635Z,95.00
2022-12-09T20:53:53.918Z,91.80
2022-12-09T20:56:22.424Z,85.60
2022-12-09T20:58:51.400Z,86.00
2022-12-09T21:01:21.124Z,96.97
2022-12-09T21:03:49.105Z,90.23
2022-12-09T21:06:18.336Z,101.83
2022-12-09T21:08:46.043Z,98.87
2022-12-09T21:11:18.956Z,95.13
2022-12-09T21:13:51.600Z,93.00
2022-12-09T21:16:22.203Z,87.90
2022-12-09T21:18:50.679Z,90.63
2022-12-09T21:21:19.166Z,91.03
2022-12-09T21:23:47.529Z,95.60
2022-12-09T21:26:16.935Z,99.97
2022-12-09T21:28:46.580Z,102.07
2022-12-09T21:31:15.247Z,97.53
2022-12-09T21:33:44.777Z,103.87
2022-12-09T21:36:15.085Z,106.57
2022-12-09T21:38:42.541Z,98.67
2022-12-09T21:41:11.963Z,100.60
2022-12-09T21:43:40.113Z,100.50
2022-12-09T21:46:23.000Z,91.00
2022-12-09T21:48:52.530Z,98.90
2022-12-09T21:51:21.157Z,101.33
2022-12-09T21:53:49.077Z,96.67
2022-12-09T21:56:21.680Z,107.97
2022-12-09T21:58:50.670Z,107.77
2022-12-09T22:01:23.333Z,107.00
2022-12-09T22:03:50.586Z,100.50
2022-12-09T22:06:17.964Z,91.93
2022-12-09T22:08:45.541Z,96.00
2022-12-09T22:11:19.286Z,102.23
2022-12-09T22:13:46.552Z,101.57
2022-12-09T22:16:20.027Z,102.20
2022-12-09T22:18:48.597Z,93.77
2022-12-09T22:21:25.325Z,95.87
2022-12-09T22:23:59.268Z,103.27
2022-12-09T22:26:27.042Z,99.37
2022-12-09T22:28:54.786Z,92.30
2022-12-09T22:31:27.121Z,102.57
2022-12-09T22:33:56.670Z,90.63
2022-12-09T22:36:23.581Z,95.50
2022-12-09T22:38:51.001Z,87.17
2022-12-09T22:41:20.810Z,96.50
2022-12-09T22:43:51.263Z,95.20
2022-12-09T22:46:21.126Z,93.53
2022-12-09T22:48:48.751Z,95.27
2022-12-09T22:51:22.703Z,90.90
2022-12-09T22:53:51.194Z,87.57
2022-12-09T22:56:18.901Z,95.97
2022-12-09T22:58:46.543Z,86.17
2022-12-09T23:01:25.682Z,92.87
2022-12-09T23:03:55.025Z,95.00
2022-12-09T23:06:22.881Z,92.43
2022-12-09T23:08:50.197Z,91.57
2022-12-09T23:11:22.952Z,83.93
2022-12-09T23:13:50.646Z,92.87
2022-12-09T23:16:20.125Z,91.73
2022-12-09T23:18:47.937Z,91.27
2022-12-09T23:21:21.217Z,92.23
2022-12-09T23:23:51.745Z,92.43
2022-12-09T23:26:23.588Z,91.73
2022-12-09T23:28:52.798Z,96.07
2022-12-09T23:31:23.027Z,97.30
2022-12-09T23:33:52.804Z,98.97
2022-12-09T23:36:22.374Z,100.23
2022-12-09T23:38:51.122Z,110.63
2022-12-09T23:41:19.419Z,108.77
2022-12-09T23:43:48.453Z,119.00
2022-12-09T23:46:18.160Z,124.00
2022-12-09T23:48:46.795Z,122.10
2022-12-09T23:51:25.789Z,124.73
2022-12-09T23:53:58.862Z,131.50
2022-12-09T23:56:29.478Z,129.97
2022-12-09T23:59:03.471Z,127.17
